Carnoustie, United Kingdom
Current Conditions -  °F | °C
As of 2:50 AM on Tuesday 21 Oct 2014 (Local Time) from EGQL Reporting Station
Moderate Rain Moderate Rain  
Wind Chill: 55°   Ceiling: 5000
Heat Index: 55°   Visibility: 6mi
Dew Point: 50°   Wind: 18mph
Humidity: 82%   Direction: 200°SSW
Pressure: 29.15"   Gusts: NA
Location:  56.5°N, 2.71°W
Report Text: EGQL 210150Z 20016KT 9999 RA BKN050 13/10 Q0987 BLU
Loading
Personal Weather Stations






























Interactive Weather Map
Tropical Storm Tracking
New forecast layout! Learn more

10-Day Weather Forecast

Advertisements
Track Severe Weather on mobile